Time;durP1;ratioP1;P1;durP2;ratioP2;P2;SDS_P1;SDS_P2;PMS_P1;PMS_P2;Temp;Humidity;BMP_temperature;BMP_pressure;BME280_temperature;BME280_humidity;BME280_pressure;Samples;Min_cycle;Max_cycle;Signal;HPM_P1;HPM_P2
2022/02/08 00:01:37;;;;;;;;;;;;;;;20.60;35.44;99739.66;4992332;28;1125;-64
2022/02/08 00:04:02;;;;;;;;;;;;;;;20.78;35.01;99744.06;4982305;28;842;-63
2022/02/08 00:08:56;;;;;;;;;;;;;;;21.09;34.48;99753.28;4978506;28;854;-63
2022/02/08 00:11:21;;;;;;;;;;;;;;;21.17;34.22;99746.91;4978199;28;1914;-64
2022/02/08 00:13:47;;;;;;;;;;;;;;;19.79;37.04;99750.94;4978788;28;844;-63
2022/02/08 00:16:12;;;;;;;;;;;;;;;19.68;37.04;99755.09;4982202;28;827;-63
2022/02/08 00:18:38;;;;;;;;;;;;;;;18.60;39.04;99755.13;4980040;28;822;-63
2022/02/08 00:21:03;;;;;;;;;;;;;;;19.44;37.79;99756.31;4978498;28;858;-63
2022/02/08 00:23:29;;;;;;;;;;;;;;;20.08;36.18;99760.59;4978371;28;798;-63
2022/02/08 00:25:54;;;;;;;;;;;;;;;20.44;35.61;99766.94;4978032;28;898;-64
2022/02/08 00:28:19;;;;;;;;;;;;;;;20.66;35.10;99760.44;4978075;28;918;-64
2022/02/08 00:30:45;;;;;;;;;;;;;;;20.84;34.74;99764.03;4978327;28;1910;-63
2022/02/08 00:33:10;;;;;;;;;;;;;;;21.03;34.21;99778.31;4978149;28;1024;-63
2022/02/08 00:35:36;;;;;;;;;;;;;;;19.98;36.14;99769.19;4977980;28;890;-63
2022/02/08 00:38:01;;;;;;;;;;;;;;;19.61;37.21;99768.53;4978179;28;889;-63
2022/02/08 00:40:27;;;;;;;;;;;;;;;19.02;38.29;99786.06;4981508;28;768;-63
2022/02/08 00:42:53;;;;;;;;;;;;;;;19.51;37.50;99771.59;4977880;28;850;-63
2022/02/08 00:47:54;;;;;;;;;;;;;;;20.52;35.05;99780.78;4978025;28;790;-64
2022/02/08 00:50:20;;;;;;;;;;;;;;;20.82;34.85;99785.69;4980797;28;1934;-64
2022/02/08 00:52:45;;;;;;;;;;;;;;;20.93;34.20;99784.19;4980914;28;1308;-64
2022/02/08 00:55:11;;;;;;;;;;;;;;;21.03;34.09;99789.38;4975772;28;1109;-62
2022/02/08 00:57:40;;;;;;;;;;;;;;;21.14;33.98;99803.66;4976809;28;1212;-62
2022/02/08 01:00:07;;;;;;;;;;;;;;;19.81;36.45;99801.09;4976715;28;1335;-62
2022/02/08 01:02:34;;;;;;;;;;;;;;;19.71;36.93;99811.56;4976587;28;1197;-62
2022/02/08 01:05:02;;;;;;;;;;;;;;;18.58;38.90;99817.94;4981773;28;838;-63
2022/02/08 01:07:28;;;;;;;;;;;;;;;19.88;36.46;99816.38;4975456;28;848;-62
2022/02/08 01:09:58;;;;;;;;;;;;;;;20.38;35.57;99823.47;4977627;28;1906;-62
2022/02/08 01:12:24;;;;;;;;;;;;;;;20.60;34.98;99833.56;4975572;28;1432;-63
2022/02/08 01:14:52;;;;;;;;;;;;;;;20.83;34.58;99832.31;4977869;28;928;-63
2022/02/08 01:17:20;;;;;;;;;;;;;;;20.97;34.22;99823.03;4977488;28;887;-63
2022/02/08 01:19:53;;;;;;;;;;;;;;;20.51;34.96;99833.56;4982611;28;798;-61
2022/02/08 01:22:19;;;;;;;;;;;;;;;19.64;36.83;99834.09;4976214;28;849;-62
2022/02/08 01:24:46;;;;;;;;;;;;;;;19.27;37.61;99848.00;4982546;28;1138;-62
2022/02/08 01:27:12;;;;;;;;;;;;;;;20.34;35.85;99851.72;4975589;28;1279;-65
2022/02/08 01:35:07;;;;;;;;;;;;;;;20.61;34.79;99829.69;4983670;28;873;-63
2022/02/08 01:42:40;;;;;;;;;;;;;;;20.38;35.33;99851.88;4975443;28;1117;-64
2022/02/08 01:47:45;;;;;;;;;;;;;;;20.99;34.19;99838.16;4975819;28;1299;-65
2022/02/08 01:50:12;;;;;;;;;;;;;;;20.45;34.96;99824.59;4981313;28;1910;-65
2022/02/08 01:52:40;;;;;;;;;;;;;;;19.59;36.86;99831.47;4977330;28;959;-66
2022/02/08 01:55:07;;;;;;;;;;;;;;;19.12;37.77;99834.59;4975424;28;1223;-65
2022/02/08 01:57:33;;;;;;;;;;;;;;;19.02;38.46;99830.16;4976325;28;790;-64
2022/02/08 01:59:58;;;;;;;;;;;;;;;20.20;35.80;99840.00;4974285;28;775;-65
2022/02/08 02:02:24;;;;;;;;;;;;;;;20.44;35.25;99828.53;4978125;28;814;-66
2022/02/08 02:04:49;;;;;;;;;;;;;;;20.72;34.87;99847.59;4981221;28;1294;-65
2022/02/08 02:07:16;;;;;;;;;;;;;;;20.93;34.51;99849.69;4979599;28;1197;-64
2022/02/08 02:09:45;;;;;;;;;;;;;;;21.08;34.18;99853.91;4981830;28;1906;-63
2022/02/08 02:12:14;;;;;;;;;;;;;;;20.00;36.14;99869.81;4979561;28;1005;-63
2022/02/08 02:14:40;;;;;;;;;;;;;;;19.73;36.59;99881.03;4978890;28;1290;-64
2022/02/08 02:17:07;;;;;;;;;;;;;;;19.28;37.60;99881.91;4979412;28;1255;-64
2022/02/08 02:19:33;;;;;;;;;;;;;;;19.92;36.51;99883.56;4979082;28;1229;-64
2022/02/08 02:21:59;;;;;;;;;;;;;;;20.47;35.39;99893.34;4982262;28;1895;-64
2022/02/08 02:24:25;;;;;;;;;;;;;;;20.78;34.69;99892.44;4981209;28;1339;-63
2022/02/08 02:26:51;;;;;;;;;;;;;;;20.95;34.47;99900.72;4979119;28;1468;-63
2022/02/08 02:29:17;;;;;;;;;;;;;;;21.09;34.00;99897.81;4978794;28;1145;-63
2022/02/08 02:31:43;;;;;;;;;;;;;;;19.71;36.61;99897.06;4980267;28;1115;-63
2022/02/08 02:34:08;;;;;;;;;;;;;;;19.68;36.80;99893.00;4985422;28;935;-63
2022/02/08 02:36:34;;;;;;;;;;;;;;;18.80;38.58;99903.38;4981242;28;1184;-63
2022/02/08 02:39:00;;;;;;;;;;;;;;;19.63;36.96;99904.97;4978460;28;1248;-63
2022/02/08 02:41:25;;;;;;;;;;;;;;;20.35;35.57;99907.75;4978458;28;1082;-63
2022/02/08 02:43:51;;;;;;;;;;;;;;;20.53;35.17;99897.56;4978558;28;1604;-63
2022/02/08 02:46:16;;;;;;;;;;;;;;;20.80;34.66;99903.97;4979965;28;854;-63
2022/02/08 02:48:42;;;;;;;;;;;;;;;20.87;34.33;99890.50;4987097;28;1148;-63
2022/02/08 02:51:12;;;;;;;;;;;;;;;21.05;34.26;99896.84;4977958;28;1973;-63
2022/02/08 02:53:41;;;;;;;;;;;;;;;19.99;35.94;99894.94;4980258;28;750;-63
2022/02/08 02:56:14;;;;;;;;;;;;;;;19.75;36.64;99901.63;4979662;28;834;-63
2022/02/08 02:58:41;;;;;;;;;;;;;;;19.17;37.67;99891.50;4979944;28;870;-63
2022/02/08 03:01:32;;;;;;;;;;;;;;;20.17;35.74;99885.63;4979521;28;1375;-63
2022/02/08 03:04:23;;;;;;;;;;;;;;;20.75;34.66;99880.09;4979701;28;1430;-63
2022/02/08 03:20:30;;;;;;;;;;;;;;;19.78;36.39;99856.88;4985123;28;803;-63
2022/02/08 03:23:02;;;;;;;;;;;;;;;20.42;35.27;99860.34;4991152;28;1347;-64
2022/02/08 03:25:28;;;;;;;;;;;;;;;20.67;34.54;99859.59;4996784;28;1144;-63
2022/02/08 03:27:58;;;;;;;;;;;;;;;20.88;34.31;99856.19;4978218;28;1152;-63
2022/02/08 03:30:24;;;;;;;;;;;;;;;21.00;33.87;99856.38;4979455;28;1906;-63
2022/02/08 03:32:50;;;;;;;;;;;;;;;21.06;33.93;99842.38;4979185;28;1262;-63
2022/02/08 03:35:16;;;;;;;;;;;;;;;21.04;33.98;99839.91;4985571;28;865;-63
2022/02/08 03:37:53;;;;;;;;;;;;;;;19.81;36.11;99853.50;4995803;28;1236;-63
2022/02/08 03:40:36;;;;;;;;;;;;;;;19.55;36.64;99869.09;4981122;28;1371;-63
2022/02/08 03:43:27;;;;;;;;;;;;;;;18.10;39.79;99872.34;4996561;28;1213;-63
2022/02/08 03:45:56;;;;;;;;;;;;;;;19.66;36.48;99851.13;4996324;28;1195;-63
2022/02/08 03:48:26;;;;;;;;;;;;;;;20.30;35.16;99883.88;4997521;28;999;-63
2022/02/08 03:50:56;;;;;;;;;;;;;;;20.61;34.48;99887.69;4990139;28;1983;-63
2022/02/08 03:53:24;;;;;;;;;;;;;;;20.78;34.04;99886.94;4986534;28;1078;-63
2022/02/08 03:55:51;;;;;;;;;;;;;;;20.93;34.11;99880.09;4996489;28;1322;-63
2022/02/08 03:58:17;;;;;;;;;;;;;;;21.11;33.58;99900.25;4977532;28;1223;-63
2022/02/08 04:03:10;;;;;;;;;;;;;;;20.20;35.28;99905.44;4997130;28;804;-64
2022/02/08 04:05:41;;;;;;;;;;;;;;;19.82;35.85;99904.81;4981349;28;755;-64
2022/02/08 04:08:10;;;;;;;;;;;;;;;19.45;36.46;99909.56;4997314;28;685;-63
2022/02/08 04:10:36;;;;;;;;;;;;;;;18.86;37.79;99915.06;4997595;28;1989;-63
2022/02/08 04:13:13;;;;;;;;;;;;;;;19.96;35.63;99920.44;4997148;28;842;-63
2022/02/08 04:32:36;;;;;;;;;;;;;;;19.10;37.24;99930.56;4980354;28;1902;-61
2022/02/08 04:34:38;;;;;;;;;;;;;;;19.05;37.53;99923.19;4981475;28;1380;-61
2022/02/08 04:42:20;;;;;;;;;;;;;;;20.69;33.94;99911.75;4997069;28;834;-62
2022/02/08 04:45:37;;;;;;;;;;;;;;;20.87;33.67;99922.84;4980391;28;759;-64
2022/02/08 04:47:44;;;;;;;;;;;;;;;20.98;33.32;99907.56;4976877;28;1256;-63
2022/02/08 04:50:11;;;;;;;;;;;;;;;21.12;33.13;99929.53;4982175;28;1911;-64
2022/02/08 04:52:36;;;;;;;;;;;;;;;20.03;34.94;99923.53;4978338;28;920;-64
2022/02/08 04:55:57;;;;;;;;;;;;;;;19.72;35.92;99920.75;4978284;28;796;-64
2022/02/08 04:57:55;;;;;;;;;;;;;;;19.70;35.74;99914.72;4973646;28;1434;-63
2022/02/08 05:43:21;;;;;;;;;;;;;;;21.14;32.50;99965.94;4981173;28;708;-63
2022/02/08 05:48:31;;;;;;;;;;;;;;;19.61;35.69;99992.72;4982716;28;886;-62
2022/02/08 05:51:01;;;;;;;;;;;;;;;19.35;35.98;100014.59;4981576;28;1907;-62
2022/02/08 05:53:32;;;;;;;;;;;;;;;20.34;34.32;100027.59;4981245;28;848;-61
2022/02/08 05:55:58;;;;;;;;;;;;;;;20.74;33.29;100021.31;4980991;28;680;-61
2022/02/08 05:58:23;;;;;;;;;;;;;;;20.94;32.95;100050.28;4980877;28;739;-61
2022/02/08 06:00:49;;;;;;;;;;;;;;;21.09;32.77;100052.59;4982689;28;936;-61
2022/02/08 06:03:33;;;;;;;;;;;;;;;20.46;33.61;100052.69;4983583;28;1346;-61
2022/02/08 06:05:58;;;;;;;;;;;;;;;19.60;35.56;100056.47;4983134;28;916;-62
2022/02/08 06:08:24;;;;;;;;;;;;;;;19.28;35.90;100053.59;4980602;28;877;-62
2022/02/08 06:10:54;;;;;;;;;;;;;;;20.22;34.23;100057.78;4980657;28;1907;-62
2022/02/08 06:13:21;;;;;;;;;;;;;;;20.73;33.27;100067.44;4985223;28;846;-63
2022/02/08 06:15:49;;;;;;;;;;;;;;;20.96;32.92;100053.56;4980668;28;746;-63
2022/02/08 06:18:14;;;;;;;;;;;;;;;21.13;32.37;100059.13;4982006;28;827;-63
2022/02/08 06:20:40;;;;;;;;;;;;;;;19.83;34.49;100041.59;4983463;28;791;-63
2022/02/08 06:23:05;;;;;;;;;;;;;;;19.62;35.02;100056.97;4980654;28;839;-63
2022/02/08 06:25:30;;;;;;;;;;;;;;;18.83;36.64;100041.56;4981310;28;960;-64
2022/02/08 06:27:56;;;;;;;;;;;;;;;18.78;36.98;100073.59;4980480;28;831;-63
2022/02/08 06:30:22;;;;;;;;;;;;;;;19.93;34.34;100075.59;4983047;28;1990;-63
2022/02/08 06:32:50;;;;;;;;;;;;;;;20.43;33.65;100075.41;4999185;28;1035;-64
2022/02/08 06:35:22;;;;;;;;;;;;;;;20.69;32.89;100077.50;4984035;28;918;-63
2022/02/08 06:37:48;;;;;;;;;;;;;;;20.87;32.72;100083.13;4984080;28;842;-63
2022/02/08 06:40:14;;;;;;;;;;;;;;;21.02;32.40;100090.97;4981269;28;1086;-63
2022/02/08 06:42:41;;;;;;;;;;;;;;;21.24;32.05;100092.00;4983940;28;1515;-67
2022/02/08 06:45:08;;;;;;;;;;;;;;;21.06;32.42;100103.00;4980583;28;850;-66
2022/02/08 06:47:33;;;;;;;;;;;;;;;19.97;34.28;100109.72;4987928;28;1634;-67
2022/02/08 06:49:59;;;;;;;;;;;;;;;20.33;33.83;100106.06;4990238;28;1907;-65
2022/02/08 06:52:24;;;;;;;;;;;;;;;21.29;32.18;100122.25;4995250;28;1562;-69
2022/02/08 06:54:50;;;;;;;;;;;;;;;21.49;31.97;100121.66;4987580;28;1341;-67
2022/02/08 06:57:16;;;;;;;;;;;;;;;21.61;31.70;100120.25;4993914;28;1425;-68
2022/02/08 06:59:49;;;;;;;;;;;;;;;21.73;31.35;100136.19;4992404;28;1305;-67
2022/02/08 07:02:14;;;;;;;;;;;;;;;21.76;31.33;100124.50;4986849;28;1365;-70
2022/02/08 07:04:40;;;;;;;;;;;;;;;21.86;31.10;100141.56;4995538;28;1361;-69
2022/02/08 07:07:07;;;;;;;;;;;;;;;21.73;31.16;100125.94;4989434;28;1291;-64
2022/02/08 07:09:32;;;;;;;;;;;;;;;21.03;32.14;100153.41;4991893;28;1906;-68
2022/02/08 07:11:59;;;;;;;;;;;;;;;20.66;33.06;100144.41;4995031;28;1356;-63
2022/02/08 07:14:29;;;;;;;;;;;;;;;20.27;33.75;100137.69;5006429;28;1217;-66
2022/02/08 07:16:54;;;;;;;;;;;;;;;17.88;38.23;100156.31;4999950;28;1289;-65
2022/02/08 07:19:20;;;;;;;;;;;;;;;15.77;42.35;100150.16;5001685;28;1201;-65
2022/02/08 07:21:45;;;;;;;;;;;;;;;16.20;42.29;100131.25;4987822;28;1451;-65
2022/02/08 07:24:11;;;;;;;;;;;;;;;19.24;35.81;100146.28;5003329;28;1206;-65
2022/02/08 07:26:37;;;;;;;;;;;;;;;18.73;36.52;100142.56;4981700;28;1229;-63
2022/02/08 07:29:02;;;;;;;;;;;;;;;19.11;35.68;100142.44;4995723;28;1232;-66
2022/02/08 07:31:36;;;;;;;;;;;;;;;17.87;37.63;100140.09;4987763;28;1985;-63
2022/02/08 07:34:20;;;;;;;;;;;;;;;15.45;42.42;100142.38;5000830;28;1269;-62
2022/02/08 07:36:55;;;;;;;;;;;;;;;17.90;38.36;100136.75;4999671;28;1404;-65
2022/02/08 07:39:34;;;;;;;;;;;;;;;18.76;35.86;100135.63;4987153;28;1367;-65
2022/02/08 07:41:59;;;;;;;;;;;;;;;18.93;35.73;100157.91;5001723;28;1279;-67
2022/02/08 07:44:24;;;;;;;;;;;;;;;18.68;36.10;100139.91;4994921;28;1305;-62
2022/02/08 07:46:59;;;;;;;;;;;;;;;16.13;40.37;100135.41;4997516;28;1243;-65
2022/02/08 07:49:26;;;;;;;;;;;;;;;15.47;42.88;100157.41;4988996;28;1433;-65
2022/02/08 07:51:51;;;;;;;;;;;;;;;18.50;36.51;100127.03;4992205;28;1914;-67
2022/02/08 07:54:17;;;;;;;;;;;;;;;18.62;35.84;100141.09;4993286;28;1412;-64
2022/02/08 07:56:42;;;;;;;;;;;;;;;18.77;35.83;100165.59;4990796;28;1674;-62
2022/02/08 07:59:08;;;;;;;;;;;;;;;18.08;36.75;100138.69;4996554;28;1416;-65
2022/02/08 08:01:33;;;;;;;;;;;;;;;15.78;41.33;100140.00;4999248;28;1233;-66
2022/02/08 08:03:59;;;;;;;;;;;;;;;16.33;40.76;100151.72;4986747;28;1294;-64
2022/02/08 08:06:24;;;;;;;;;;;;;;;19.04;35.15;100180.59;4992074;28;1183;-64
2022/02/08 08:08:51;;;;;;;;;;;;;;;18.38;36.28;100182.53;4993945;28;1280;-63
2022/02/08 08:11:21;;;;;;;;;;;;;;;18.86;35.54;100168.50;4981779;28;1914;-64
2022/02/08 08:21:37;;;;;;;;;;;;;;;18.75;35.41;100178.06;4997731;28;1206;-67
2022/02/08 08:24:03;;;;;;;;;;;;;;;18.54;35.82;100192.19;4994896;28;1387;-67
2022/02/08 08:30:04;;;;;;;;;;;;;;;15.31;42.28;100203.25;4993995;28;1913;-66
2022/02/08 08:32:30;;;;;;;;;;;;;;;17.21;38.93;100184.66;4989162;28;1405;-65
2022/02/08 08:34:55;;;;;;;;;;;;;;;19.15;34.35;100176.53;4993844;28;1201;-65
2022/02/08 08:37:21;;;;;;;;;;;;;;;18.30;36.04;100173.84;4992413;28;1061;-66
2022/02/08 08:39:50;;;;;;;;;;;;;;;18.84;35.18;100200.22;4991330;28;1400;-68
2022/02/08 08:50:46;;;;;;;;;;;;;;;18.25;35.94;100187.69;4989983;28;2250;-68
2022/02/08 08:53:12;;;;;;;;;;;;;;;18.53;35.44;100214.50;4990192;28;1293;-66
2022/02/08 08:55:38;;;;;;;;;;;;;;;17.18;37.86;100198.16;4988367;28;1186;-65
2022/02/08 08:58:05;;;;;;;;;;;;;;;15.10;42.39;100238.09;4983882;28;1411;-65
2022/02/08 09:00:30;;;;;;;;;;;;;;;17.59;37.14;100206.72;4987555;28;1368;-66
2022/02/08 09:02:56;;;;;;;;;;;;;;;18.91;34.46;100236.47;4983824;28;1024;-63
2022/02/08 09:05:21;;;;;;;;;;;;;;;18.34;35.57;100229.13;4982996;28;1281;-64
2022/02/08 09:07:47;;;;;;;;;;;;;;;18.55;34.96;100235.13;4996779;28;1269;-62
2022/02/08 09:10:17;;;;;;;;;;;;;;;16.41;39.21;100258.13;4981631;28;1980;-60
2022/02/08 09:28:58;;;;;;;;;;;;;;;18.04;36.32;100319.22;4992148;28;1471;-64
2022/02/08 09:31:23;;;;;;;;;;;;;;;18.67;34.81;100303.50;4980648;28;1918;-63
2022/02/08 09:33:49;;;;;;;;;;;;;;;18.39;35.49;100330.88;4995404;28;1390;-62
2022/02/08 09:36:20;;;;;;;;;;;;;;;18.25;35.55;100292.25;4969246;28;1461;-62
2022/02/08 09:38:45;;;;;;;;;;;;;;;16.03;39.81;100320.88;4995253;28;1230;-65
2022/02/08 09:41:11;;;;;;;;;;;;;;;15.60;41.15;100293.03;4991753;28;1563;-64
2022/02/08 09:43:37;;;;;;;;;;;;;;;18.40;35.57;100295.94;4991282;28;1420;-64
2022/02/08 09:46:04;;;;;;;;;;;;;;;19.20;34.00;100309.84;4986394;28;1250;-65
2022/02/08 09:48:40;;;;;;;;;;;;;;;19.37;33.87;100304.53;4987889;28;1439;-60
2022/02/08 09:51:05;;;;;;;;;;;;;;;18.56;35.22;100260.72;4990485;28;1973;-66
2022/02/08 09:53:33;;;;;;;;;;;;;;;17.34;37.41;100273.81;4983880;28;1193;-68
2022/02/08 09:55:59;;;;;;;;;;;;;;;18.63;35.29;100291.44;4976189;28;1183;-67
2022/02/08 09:58:24;;;;;;;;;;;;;;;19.44;33.51;100269.13;4988873;28;1531;-69
2022/02/08 10:00:49;;;;;;;;;;;;;;;19.79;33.03;100294.38;4983267;28;1540;-68
2022/02/08 10:03:19;;;;;;;;;;;;;;;20.24;32.04;100273.59;4983978;28;1475;-62
2022/02/08 10:05:44;;;;;;;;;;;;;;;18.96;34.32;100278.53;4986782;28;1169;-65
2022/02/08 10:08:10;;;;;;;;;;;;;;;18.90;34.44;100284.44;4982783;28;1160;-66
2022/02/08 10:10:35;;;;;;;;;;;;;;;17.83;36.59;100268.31;4976632;28;1971;-64
2022/02/08 10:13:15;;;;;;;;;;;;;;;15.38;41.18;100266.78;4993680;28;1551;-63
2022/02/08 10:23:59;;;;;;;;;;;;;;;18.19;35.66;100265.09;4991032;28;1474;-64
2022/02/08 10:26:32;;;;;;;;;;;;;;;15.74;40.34;100290.53;4984665;28;1519;-64
2022/02/08 10:29:03;;;;;;;;;;;;;;;16.68;39.37;100291.69;4986333;28;1298;-64
2022/02/08 10:32:01;;;;;;;;;;;;;;;19.14;34.17;100315.44;4996858;28;1967;-64
2022/02/08 10:39:58;;;;;;;;;;;;;;;16.22;39.70;100303.78;4985231;28;1317;-67
2022/02/08 10:42:24;;;;;;;;;;;;;;;17.63;37.56;100330.69;4988500;28;1581;-62
2022/02/08 10:44:49;;;;;;;;;;;;;;;20.08;32.85;100325.56;4988364;28;1419;-62
2022/02/08 10:47:15;;;;;;;;;;;;;;;20.66;31.62;100301.88;4995256;28;1451;-64
2022/02/08 10:49:42;;;;;;;;;;;;;;;20.41;32.13;100345.56;4984831;28;1902;-61
2022/02/08 10:52:10;;;;;;;;;;;;;;;20.44;31.86;100358.72;4990879;28;1578;-65
2022/02/08 10:54:41;;;;;;;;;;;;;;;18.46;35.16;100323.06;4991922;28;1334;-67
2022/02/08 10:57:11;;;;;;;;;;;;;;;17.87;37.03;100346.38;4997458;28;1233;-62
2022/02/08 10:59:47;;;;;;;;;;;;;;;20.72;31.48;100331.06;4994985;28;1372;-63
2022/02/08 11:02:38;;;;;;;;;;;;;;;20.72;31.27;100347.66;4991208;28;1424;-67
2022/02/08 11:05:54;;;;;;;;;;;;;;;21.26;30.73;100352.41;4985662;28;1886;-64
2022/02/08 11:08:13;;;;;;;;;;;;;;;19.45;33.31;100344.41;4972714;28;1478;-67
2022/02/08 11:13:45;;;;;;;;;;;;;;;17.70;37.82;100374.34;4983356;28;1125;-66
2022/02/08 11:16:10;;;;;;;;;;;;;;;21.17;30.93;100368.97;4986131;28;1436;-64
2022/02/08 11:21:18;;;;;;;;;;;;;;;21.58;30.00;100364.34;4990767;28;1379;-67
2022/02/08 11:26:34;;;;;;;;;;;;;;;18.56;35.09;100373.59;4992818;28;1346;-65
2022/02/08 11:29:11;;;;;;;;;;;;;;;18.04;36.25;100355.00;4991832;28;1326;-69
2022/02/08 11:31:41;;;;;;;;;;;;;;;18.69;35.49;100353.59;4991226;28;1918;-71
2022/02/08 11:39:00;;;;;;;;;;;;;;;21.47;30.18;100356.28;4990182;28;1383;-70
2022/02/08 11:47:50;;;;;;;;;;;;;;;18.28;35.56;100318.38;4986499;28;1439;-72
2022/02/08 11:53:21;;;;;;;;;;;;;;;18.49;35.45;100312.59;4951050;28;1438;-71
2022/02/08 11:58:50;;;;;;;;;;;;;;;18.47;35.24;100334.91;4985016;28;1101;-70
2022/02/08 12:01:20;;;;;;;;;;;;;;;18.43;35.32;100331.13;4988423;28;1341;-63
2022/02/08 12:08:59;;;;;;;;;;;;;;;18.59;34.82;100356.47;4990236;28;1345;-70
2022/02/08 12:11:51;;;;;;;;;;;;;;;18.05;36.08;100380.59;4987621;28;1914;-68
2022/02/08 13:02:10;;;;;;;;;;;;;;;20.54;31.58;100472.84;4989648;28;1308;-69
2022/02/08 13:19:26;;;;;;;;;;;;;;;22.09;29.57;100514.38;4989099;28;1253;-67
2022/02/08 14:03:16;;;;;;;;;;;;;;;20.94;32.51;100580.94;4984698;28;1251;-68
2022/02/08 14:07:54;;;;;;;;;;;;;;;21.92;30.65;100600.91;4984288;28;1359;-69
2022/02/08 14:10:31;;;;;;;;;;;;;;;22.07;30.49;100625.47;4988293;28;1977;-67
2022/02/08 14:16:10;;;;;;;;;;;;;;;22.33;29.96;100644.19;4956920;28;1249;-64
2022/02/08 15:08:39;;;;;;;;;;;;;;;19.03;36.29;100787.94;4985025;28;1571;-65
2022/02/08 15:11:09;;;;;;;;;;;;;;;19.09;35.83;100797.78;4987092;28;1967;-63
2022/02/08 15:13:40;;;;;;;;;;;;;;;19.32;35.61;100809.16;4983734;28;1402;-63
2022/02/08 15:18:33;;;;;;;;;;;;;;;19.01;35.80;100800.38;4997603;28;874;-60
2022/02/08 15:20:59;;;;;;;;;;;;;;;18.93;36.33;100807.34;4981269;28;1055;-63
2022/02/08 15:23:25;;;;;;;;;;;;;;;18.51;36.84;100816.97;4982841;28;1390;-60
2022/02/08 15:25:54;;;;;;;;;;;;;;;18.30;37.04;100819.88;4983115;28;1088;-59
2022/02/08 15:28:22;;;;;;;;;;;;;;;19.54;35.18;100833.47;4980208;28;1039;-60
2022/02/08 15:30:47;;;;;;;;;;;;;;;20.03;33.98;100823.28;4981883;28;1906;-59
2022/02/08 15:33:13;;;;;;;;;;;;;;;18.93;35.84;100827.44;4981991;28;1172;-61
2022/02/08 15:35:38;;;;;;;;;;;;;;;19.18;35.71;100835.75;4984113;28;1275;-60
2022/02/08 15:38:05;;;;;;;;;;;;;;;18.80;36.29;100842.66;4983668;28;1175;-61
2022/02/08 15:40:31;;;;;;;;;;;;;;;18.51;36.64;100833.50;4979718;28;1080;-56
2022/02/08 15:42:57;;;;;;;;;;;;;;;18.30;37.31;100833.63;4982415;28;1205;-56
2022/02/08 15:45:47;;;;;;;;;;;;;;;19.36;35.21;100840.53;4981996;28;1209;-56
2022/02/08 15:48:14;;;;;;;;;;;;;;;18.63;36.24;100837.56;4983015;28;1397;-57
2022/02/08 16:09:05;;;;;;;;;;;;;;;19.50;34.81;100865.50;4982438;28;1161;-57
2022/02/08 16:14:39;;;;;;;;;;;;;;;18.27;36.70;100872.72;4983760;28;986;-58
2022/02/08 16:19:27;;;;;;;;;;;;;;;18.46;36.53;100884.72;4981762;28;1218;-58
2022/02/08 16:32:40;;;;;;;;;;;;;;;18.06;37.03;100872.81;4982706;28;1906;-60
2022/02/08 16:59:22;;;;;;;;;;;;;;;18.71;35.93;100918.75;4977495;28;1381;-61
2022/02/08 17:01:48;;;;;;;;;;;;;;;19.09;35.68;100905.28;4984173;28;1460;-62
2022/02/08 17:04:14;;;;;;;;;;;;;;;20.45;32.79;100915.50;4986045;28;1354;-61
2022/02/08 17:06:39;;;;;;;;;;;;;;;21.04;31.76;100918.00;4978186;28;1231;-61
2022/02/08 17:09:13;;;;;;;;;;;;;;;21.29;31.42;100907.66;4983092;28;1305;-61
2022/02/08 17:11:56;;;;;;;;;;;;;;;21.49;31.11;100923.91;4981827;28;1985;-62
2022/02/08 17:14:30;;;;;;;;;;;;;;;21.59;30.81;100917.41;4984398;28;1331;-61
2022/02/08 17:47:32;;;;;;;;;;;;;;;22.53;29.45;101039.16;4935333;29;1241;-61
2022/02/08 17:49:25;;;;;;;;;;;;;;;22.54;29.72;101047.16;4970649;28;1275;-61
2022/02/08 17:51:51;;;;;;;;;;;;;;;22.71;29.23;101048.50;4993949;28;1914;-61
2022/02/08 17:54:19;;;;;;;;;;;;;;;22.69;29.42;101062.69;4988307;28;1342;-61
2022/02/08 17:56:46;;;;;;;;;;;;;;;22.75;29.12;101068.94;4966916;28;1287;-63
2022/02/08 17:59:11;;;;;;;;;;;;;;;22.79;29.25;101053.34;4981626;28;1575;-63
2022/02/08 18:01:37;;;;;;;;;;;;;;;22.82;29.15;101049.94;4983079;28;1198;-61
2022/02/08 18:04:03;;;;;;;;;;;;;;;22.83;29.30;101059.91;4983786;28;1324;-61
2022/02/08 18:06:28;;;;;;;;;;;;;;;22.85;29.17;101057.63;4982948;28;1591;-61
2022/02/08 18:08:54;;;;;;;;;;;;;;;22.92;29.02;101061.91;4983695;28;1193;-61
2022/02/08 18:11:25;;;;;;;;;;;;;;;22.87;28.92;101052.59;4982967;28;1993;-61
2022/02/08 18:13:51;;;;;;;;;;;;;;;23.00;29.07;101058.41;4982735;28;1208;-61
2022/02/08 18:16:21;;;;;;;;;;;;;;;23.02;28.93;101064.50;4983667;28;1531;-60
2022/02/08 18:18:48;;;;;;;;;;;;;;;22.62;29.55;101067.78;4989355;28;1431;-61
2022/02/08 18:21:25;;;;;;;;;;;;;;;21.03;32.14;101071.19;4984017;28;1114;-61
2022/02/08 19:09:34;;;;;;;;;;;;;;;21.52;31.47;101191.72;4963885;28;787;-62
2022/02/08 19:12:16;;;;;;;;;;;;;;;22.41;30.27;101189.28;4981988;28;1906;-62
2022/02/08 19:20:03;;;;;;;;;;;;;;;22.87;29.52;101202.34;4981576;28;827;-61
2022/02/08 19:22:28;;;;;;;;;;;;;;;23.08;29.04;101199.16;4992891;28;821;-62
2022/02/08 19:24:54;;;;;;;;;;;;;;;23.14;29.10;101203.50;4974333;28;1186;-62
2022/02/08 19:27:20;;;;;;;;;;;;;;;22.63;29.63;101196.94;4992075;28;1102;-62
2022/02/08 19:29:45;;;;;;;;;;;;;;;21.25;31.95;101203.38;4998277;28;902;-62
2022/02/08 19:32:11;;;;;;;;;;;;;;;22.01;31.01;101197.13;4988772;28;1906;-62
2022/02/08 19:34:38;;;;;;;;;;;;;;;22.50;29.93;101190.25;4974559;28;858;-61
2022/02/08 19:37:06;;;;;;;;;;;;;;;22.78;29.54;101200.56;4980626;28;808;-61
2022/02/08 19:39:35;;;;;;;;;;;;;;;22.91;29.27;101196.97;4979735;28;778;-62
2022/02/08 19:42:01;;;;;;;;;;;;;;;23.04;29.24;101204.50;4979654;28;790;-61
2022/02/08 19:44:27;;;;;;;;;;;;;;;23.12;29.06;101202.16;4979504;28;936;-61
2022/02/08 19:46:55;;;;;;;;;;;;;;;23.17;28.92;101202.88;4979560;28;854;-60
2022/02/08 19:49:21;;;;;;;;;;;;;;;23.17;29.00;101194.56;4971034;28;1087;-60
2022/02/08 19:51:47;;;;;;;;;;;;;;;22.17;30.42;101198.50;4963479;28;1906;-63
2022/02/08 19:54:18;;;;;;;;;;;;;;;21.15;32.26;101203.47;4990131;28;795;-64
2022/02/08 19:56:53;;;;;;;;;;;;;;;21.90;31.09;101209.47;4981055;28;830;-63
2022/02/08 19:59:31;;;;;;;;;;;;;;;22.52;30.20;101214.88;4981847;28;846;-64
2022/02/08 20:01:58;;;;;;;;;;;;;;;22.80;29.60;101215.75;4986867;28;806;-63
2022/02/08 20:04:25;;;;;;;;;;;;;;;22.92;29.51;101208.88;4982466;28;937;-62
2022/02/08 20:06:53;;;;;;;;;;;;;;;23.09;29.08;101206.34;4979234;28;762;-63
2022/02/08 20:09:18;;;;;;;;;;;;;;;23.16;29.01;101206.78;4961237;28;850;-63
2022/02/08 20:11:45;;;;;;;;;;;;;;;23.20;28.98;101213.34;4978711;28;1914;-62
2022/02/08 20:14:12;;;;;;;;;;;;;;;21.11;32.33;101211.56;4979049;28;786;-63
2022/02/08 20:16:38;;;;;;;;;;;;;;;21.34;32.00;101212.66;4988468;28;865;-62
2022/02/08 20:19:04;;;;;;;;;;;;;;;22.35;30.41;101215.44;4990632;28;946;-63
2022/02/08 20:21:31;;;;;;;;;;;;;;;22.65;29.96;101218.81;4978710;28;878;-63
2022/02/08 20:24:00;;;;;;;;;;;;;;;22.90;29.28;101218.34;4991516;28;798;-63
2022/02/08 20:26:34;;;;;;;;;;;;;;;23.05;29.29;101224.72;4997639;28;826;-63
2022/02/08 20:29:00;;;;;;;;;;;;;;;23.09;28.91;101222.19;4978421;28;1168;-63
2022/02/08 20:31:27;;;;;;;;;;;;;;;23.16;28.91;101223.44;4990729;28;1989;-64
2022/02/08 20:33:53;;;;;;;;;;;;;;;21.31;32.02;101215.19;4983688;28;866;-64
2022/02/08 20:36:18;;;;;;;;;;;;;;;21.32;32.21;101212.13;4977454;28;1442;-66
2022/02/08 20:38:45;;;;;;;;;;;;;;;22.35;30.40;101215.44;4984628;28;1488;-65
2022/02/08 20:41:11;;;;;;;;;;;;;;;22.71;29.66;101209.28;4984660;28;739;-66
2022/02/08 20:43:37;;;;;;;;;;;;;;;22.95;29.26;101208.28;4978671;28;1338;-66
2022/02/08 20:46:05;;;;;;;;;;;;;;;23.06;28.86;101204.19;4983675;28;1436;-66
2022/02/08 20:48:31;;;;;;;;;;;;;;;23.12;29.02;101207.72;4980782;28;1172;-65
2022/02/08 20:51:00;;;;;;;;;;;;;;;23.00;28.88;101211.78;4977849;28;2002;-65
2022/02/08 20:56:12;;;;;;;;;;;;;;;21.76;31.44;101212.16;4991429;28;783;-65
2022/02/08 20:58:53;;;;;;;;;;;;;;;22.55;30.02;101204.00;4996895;28;803;-65
2022/02/08 21:01:19;;;;;;;;;;;;;;;22.79;29.61;101199.44;4976071;28;1295;-67
2022/02/08 21:04:00;;;;;;;;;;;;;;;22.94;29.28;101201.09;4983001;28;1350;-66
2022/02/08 21:06:28;;;;;;;;;;;;;;;23.07;29.09;101203.88;4980269;28;1286;-66